PWSweather.com
Personal Weather Stations
Station Observations
KTXNEWBR92
New Braunfels, TX

New Braunfels, TX

Lat: 29.722, Lon: -98.17

Elevation: 850

Station Type:

High Low Average
Temperature 56.8°F13.8°C 33.8°F1.0°C 42.3°F5.7°C
Dew Point 41.4°F5.2°C 30.2°F-1.0°C 34.9°F1.6°C
Winds 9.2 mph 14.8 kmh Calm Calm 2.0 mph SE3.2 kmh SE
Wind Gusts 15.0 mph24.1 kmh -- 3.0 mph4.8 kmh
Humidity 94% 37% 79%
Pressure 29.83 in1010.2 mb 29.70 in1005.8 mb -
Precipitation 0.12 in3.0 mm - -
Hour Temp Dew Point Humidity Winds Wind Gusts Pressure Precip Precip Rate Daily Precip Total
12:04 AM 36.7°F2.6°C 35.1°F1.7°C 94% 3.4 mph NE5.5 kmh NE 4.9 mph7.9 kmh 29.77 in1008.1 mb 0.00 in0.0 mm 0.00 in0.0 mm 1.55 in39.4 mm
12:09 AM 36.7°F2.6°C 35.1°F1.7°C 94% 1.1 mph ESE1.8 kmh ESE 2.5 mph4.0 kmh 29.77 in1008.1 mb 0.00 in0.0 mm 0.00 in0.0 mm 1.55 in39.4 mm
12:14 AM 36.7°F2.6°C 35.1°F1.7°C 94% 4.9 mph NNE7.9 kmh NNE 7.4 mph11.9 kmh 29.76 in1007.8 mb 0.00 in0.0 mm 0.00 in0.0 mm 1.55 in39.4 mm
12:19 AM 36.5°F2.5°C 34.9°F1.6°C 94% 1.3 mph NE2.1 kmh NE 4.9 mph7.9 kmh 29.75 in1007.5 mb 0.00 in0.0 mm 0.00 in0.0 mm 1.55 in39.4 mm
12:24 AM 36.5°F2.5°C 34.9°F1.6°C 94% 1.8 mph NE2.9 kmh NE 4.9 mph7.9 kmh 29.75 in1007.5 mb 0.00 in0.0 mm 0.00 in0.0 mm 1.55 in39.4 mm
12:29 AM 36.5°F2.5°C 34.9°F1.6°C 94% 2.5 mph NNW4.0 kmh NNW 4.9 mph7.9 kmh 29.76 in1007.8 mb 0.00 in0.0 mm 0.00 in0.0 mm 1.55 in39.4 mm
12:34 AM 36.5°F2.5°C 34.9°F1.6°C 94% 1.8 mph W2.9 kmh W 2.5 mph4.0 kmh 29.77 in1008.1 mb 0.00 in0.0 mm 0.00 in0.0 mm 1.55 in39.4 mm
12:39 AM 36.5°F2.5°C 34.9°F1.6°C 94% 4.5 mph N7.2 kmh N 4.9 mph7.9 kmh 29.77 in1008.1 mb 0.00 in0.0 mm 0.00 in0.0 mm 1.55 in39.4 mm
12:44 AM 36.5°F2.5°C 34.9°F1.6°C 94% 2.0 mph NE3.2 kmh NE 4.9 mph7.9 kmh 29.77 in1008.1 mb 0.00 in0.0 mm 0.00 in0.0 mm 1.55 in39.4 mm
12:49 AM 36.5°F2.5°C 34.9°F1.6°C 94% 2.9 mph NE4.7 kmh NE 4.9 mph7.9 kmh 29.77 in1008.1 mb 0.00 in0.0 mm 0.00 in0.0 mm 1.55 in39.4 mm
12:54 AM 36.5°F2.5°C 34.9°F1.6°C 94% 0.4 mph ENE0.6 kmh ENE 2.5 mph4.0 kmh 29.78 in1008.5 mb 0.00 in0.0 mm 0.00 in0.0 mm 1.55 in39.4 mm
01:04 AM 36.5°F2.5°C 34.9°F1.6°C 94% 0.4 mph ENE0.6 kmh ENE 2.5 mph4.0 kmh 29.77 in1008.1 mb 0.07 in1.8 mm 0.08 in2.0 mm 0.07 in1.8 mm
01:09 AM 36.5°F2.5°C 34.9°F1.6°C 94% 1.3 mph ENE2.1 kmh ENE 2.5 mph4.0 kmh 29.77 in1008.1 mb 0.00 in0.0 mm 0.00 in0.0 mm 0.07 in1.8 mm
01:14 AM 36.5°F2.5°C 34.9°F1.6°C 94% 1.8 mph NNE2.9 kmh NNE 2.5 mph4.0 kmh 29.78 in1008.5 mb 0.00 in0.0 mm 0.00 in0.0 mm 0.07 in1.8 mm
01:19 AM 36.5°F2.5°C 34.9°F1.6°C 94% 4.3 mph NW6.9 kmh NW 4.9 mph7.9 kmh 29.78 in1008.5 mb 0.00 in0.0 mm 0.00 in0.0 mm 0.07 in1.8 mm
01:24 AM 36.7°F2.6°C 35.1°F1.7°C 94% 1.8 mph ENE2.9 kmh ENE 2.5 mph4.0 kmh 29.78 in1008.5 mb 0.00 in0.0 mm 0.00 in0.0 mm 0.07 in1.8 mm
01:29 AM 36.7°F2.6°C 35.1°F1.7°C 94% 1.1 mph ENE1.8 kmh ENE 2.5 mph4.0 kmh 29.78 in1008.5 mb 0.00 in0.0 mm 0.00 in0.0 mm 0.07 in1.8 mm
01:34 AM 36.7°F2.6°C 35.1°F1.7°C 94% 2.7 mph ENE4.3 kmh ENE 4.9 mph7.9 kmh 29.78 in1008.5 mb 0.00 in0.0 mm 0.00 in0.0 mm 0.07 in1.8 mm
01:39 AM 36.7°F2.6°C 35.1°F1.7°C 94% 4.3 mph NNE6.9 kmh NNE 7.4 mph11.9 kmh 29.79 in1008.8 mb 0.00 in0.0 mm 0.00 in0.0 mm 0.07 in1.8 mm
01:44 AM 36.7°F2.6°C 35.1°F1.7°C 94% 3.4 mph NW5.5 kmh NW 4.9 mph7.9 kmh 29.79 in1008.8 mb 0.01 in0.3 mm 0.12 in3.0 mm 0.01 in0.3 mm
01:49 AM 36.7°F2.6°C 35.1°F1.7°C 94% 3.6 mph SW5.8 kmh SW 4.9 mph7.9 kmh 29.78 in1008.5 mb 0.01 in0.3 mm 0.00 in0.0 mm 0.01 in0.3 mm
01:54 AM 36.7°F2.6°C 35.1°F1.7°C 94% Calm Calm -- 29.80 in1009.1 mb 0.01 in0.3 mm 0.00 in0.0 mm 0.01 in0.3 mm
01:59 AM 36.9°F2.7°C 35.2°F1.8°C 94% Calm Calm -- 29.80 in1009.1 mb 0.01 in0.3 mm 0.00 in0.0 mm 0.01 in0.3 mm
02:04 AM 36.9°F2.7°C 35.2°F1.8°C 94% 3.6 mph NE5.8 kmh NE 4.9 mph7.9 kmh 29.81 in1009.5 mb 0.00 in0.0 mm 0.00 in0.0 mm 0.01 in0.3 mm
02:09 AM 36.9°F2.7°C 35.2°F1.8°C 94% 1.3 mph SSW2.1 kmh SSW 2.5 mph4.0 kmh 29.80 in1009.1 mb 0.00 in0.0 mm 0.00 in0.0 mm 0.01 in0.3 mm
02:14 AM 36.9°F2.7°C 35.2°F1.8°C 94% 2.9 mph NNE4.7 kmh NNE 4.9 mph7.9 kmh 29.80 in1009.1 mb 0.00 in0.0 mm 0.00 in0.0 mm 0.01 in0.3 mm
02:19 AM 36.9°F2.7°C 35.2°F1.8°C 94% 1.8 mph NE2.9 kmh NE 4.9 mph7.9 kmh 29.80 in1009.1 mb 0.00 in0.0 mm 0.00 in0.0 mm 0.01 in0.3 mm
02:24 AM 36.9°F2.7°C 35.2°F1.8°C 94% 5.6 mph N9.0 kmh N 7.4 mph11.9 kmh 29.80 in1009.1 mb 0.00 in0.0 mm 0.00 in0.0 mm 0.01 in0.3 mm
02:29 AM 36.9°F2.7°C 35.2°F1.8°C 94% 6.5 mph NE10.5 kmh NE 7.4 mph11.9 kmh 29.80 in1009.1 mb 0.01 in0.3 mm 0.12 in3.0 mm 0.02 in0.5 mm
02:34 AM 36.9°F2.7°C 35.2°F1.8°C 94% 0.4 mph ENE0.6 kmh ENE 2.5 mph4.0 kmh 29.80 in1009.1 mb 0.01 in0.3 mm 0.00 in0.0 mm 0.02 in0.5 mm
02:39 AM 36.9°F2.7°C 35.2°F1.8°C 94% 1.8 mph N2.9 kmh N 2.5 mph4.0 kmh 29.80 in1009.1 mb 0.01 in0.3 mm 0.00 in0.0 mm 0.02 in0.5 mm
02:44 AM 36.9°F2.7°C 35.2°F1.8°C 94% 2.5 mph NNW4.0 kmh NNW 4.9 mph7.9 kmh 29.80 in1009.1 mb 0.01 in0.3 mm 0.00 in0.0 mm 0.02 in0.5 mm
02:49 AM 36.9°F2.7°C 35.2°F1.8°C 94% 0.4 mph NE0.6 kmh NE 2.5 mph4.0 kmh 29.79 in1008.8 mb 0.01 in0.3 mm 0.00 in0.0 mm 0.02 in0.5 mm
02:54 AM 36.9°F2.7°C 35.2°F1.8°C 94% 3.6 mph N5.8 kmh N 7.4 mph11.9 kmh 29.79 in1008.8 mb 0.01 in0.3 mm 0.00 in0.0 mm 0.02 in0.5 mm
02:59 AM 36.9°F2.7°C 35.1°F1.7°C 93% 1.1 mph NE1.8 kmh NE 2.5 mph4.0 kmh 29.79 in1008.8 mb 0.01 in0.3 mm 0.00 in0.0 mm 0.02 in0.5 mm
03:04 AM 36.9°F2.7°C 35.1°F1.7°C 93% 0.2 mph NE0.3 kmh NE 2.5 mph4.0 kmh 29.79 in1008.8 mb 0.00 in0.0 mm 0.00 in0.0 mm 0.02 in0.5 mm
03:09 AM 36.9°F2.7°C 35.1°F1.7°C 93% 4.3 mph NNW6.9 kmh NNW 4.9 mph7.9 kmh 29.79 in1008.8 mb 0.00 in0.0 mm 0.00 in0.0 mm 0.02 in0.5 mm
03:14 AM 36.9°F2.7°C 35.1°F1.7°C 93% 2.0 mph NE3.2 kmh NE 4.9 mph7.9 kmh 29.78 in1008.5 mb 0.00 in0.0 mm 0.00 in0.0 mm 0.02 in0.5 mm
03:19 AM 36.9°F2.7°C 35.2°F1.8°C 94% 3.4 mph NE5.5 kmh NE 4.9 mph7.9 kmh 29.78 in1008.5 mb 0.00 in0.0 mm 0.00 in0.0 mm 0.02 in0.5 mm
03:24 AM 36.9°F2.7°C 35.1°F1.7°C 93% 1.1 mph NNE1.8 kmh NNE 2.5 mph4.0 kmh 29.77 in1008.1 mb 0.00 in0.0 mm 0.00 in0.0 mm 0.02 in0.5 mm
03:29 AM 36.9°F2.7°C 35.1°F1.7°C 93% 2.9 mph NNE4.7 kmh NNE 4.9 mph7.9 kmh 29.78 in1008.5 mb 0.02 in0.5 mm 0.24 in6.1 mm 0.04 in1.0 mm
03:34 AM 36.9°F2.7°C 35.1°F1.7°C 93% 1.1 mph NE1.8 kmh NE 2.5 mph4.0 kmh 29.77 in1008.1 mb 0.02 in0.5 mm 0.00 in0.0 mm 0.04 in1.0 mm
03:39 AM 36.9°F2.7°C 35.1°F1.7°C 93% Calm Calm -- 29.78 in1008.5 mb 0.02 in0.5 mm 0.00 in0.0 mm 0.04 in1.0 mm
03:44 AM 37.0°F2.8°C 35.2°F1.8°C 93% 4.0 mph N6.4 kmh N 4.9 mph7.9 kmh 29.78 in1008.5 mb 0.02 in0.5 mm 0.00 in0.0 mm 0.04 in1.0 mm
03:49 AM 37.0°F2.8°C 35.2°F1.8°C 93% 1.3 mph N2.1 kmh N 2.5 mph4.0 kmh 29.76 in1007.8 mb 0.02 in0.5 mm 0.00 in0.0 mm 0.04 in1.0 mm
03:54 AM 37.0°F2.8°C 35.2°F1.8°C 93% 0.9 mph NW1.4 kmh NW 2.5 mph4.0 kmh 29.77 in1008.1 mb 0.02 in0.5 mm 0.00 in0.0 mm 0.04 in1.0 mm
03:59 AM 37.0°F2.8°C 35.2°F1.8°C 93% 4.5 mph NNW7.2 kmh NNW 7.4 mph11.9 kmh 29.76 in1007.8 mb 0.02 in0.5 mm 0.00 in0.0 mm 0.04 in1.0 mm
04:04 AM 37.0°F2.8°C 35.4°F1.9°C 94% 4.5 mph NE7.2 kmh NE 7.4 mph11.9 kmh 29.77 in1008.1 mb 0.00 in0.0 mm 0.00 in0.0 mm 0.04 in1.0 mm
04:09 AM 37.0°F2.8°C 35.2°F1.8°C 93% 0.4 mph NE0.6 kmh NE 2.5 mph4.0 kmh 29.77 in1008.1 mb 0.00 in0.0 mm 0.00 in0.0 mm 0.04 in1.0 mm
04:14 AM 37.2°F2.9°C 35.4°F1.9°C 93% 1.8 mph NE2.9 kmh NE 2.5 mph4.0 kmh 29.77 in1008.1 mb 0.01 in0.3 mm 0.12 in3.0 mm 0.05 in1.3 mm
04:19 AM 37.2°F2.9°C 35.4°F1.9°C 93% 3.4 mph NE5.5 kmh NE 4.9 mph7.9 kmh 29.78 in1008.5 mb 0.01 in0.3 mm 0.00 in0.0 mm 0.05 in1.3 mm
04:24 AM 37.2°F2.9°C 35.6°F2.0°C 94% 5.1 mph NE8.2 kmh NE 7.4 mph11.9 kmh 29.78 in1008.5 mb 0.01 in0.3 mm 0.00 in0.0 mm 0.05 in1.3 mm
04:29 AM 37.2°F2.9°C 35.6°F2.0°C 94% 0.2 mph NE0.3 kmh NE 2.5 mph4.0 kmh 29.80 in1009.1 mb 0.01 in0.3 mm 0.00 in0.0 mm 0.05 in1.3 mm
04:34 AM 37.2°F2.9°C 35.6°F2.0°C 94% 0.2 mph S0.3 kmh S 2.5 mph4.0 kmh 29.80 in1009.1 mb 0.01 in0.3 mm 0.00 in0.0 mm 0.05 in1.3 mm
04:39 AM 37.2°F2.9°C 35.6°F2.0°C 94% 2.0 mph WNW3.2 kmh WNW 2.5 mph4.0 kmh 29.80 in1009.1 mb 0.01 in0.3 mm 0.00 in0.0 mm 0.05 in1.3 mm
04:44 AM 37.2°F2.9°C 35.6°F2.0°C 94% 0.9 mph E1.4 kmh E 2.5 mph4.0 kmh 29.80 in1009.1 mb 0.01 in0.3 mm 0.00 in0.0 mm 0.05 in1.3 mm
04:49 AM 37.4°F3.0°C 35.8°F2.1°C 94% 2.5 mph NW4.0 kmh NW 2.5 mph4.0 kmh 29.80 in1009.1 mb 0.01 in0.3 mm 0.00 in0.0 mm 0.05 in1.3 mm
04:54 AM 37.4°F3.0°C 35.8°F2.1°C 94% 0.4 mph E0.6 kmh E 2.5 mph4.0 kmh 29.79 in1008.8 mb 0.01 in0.3 mm 0.00 in0.0 mm 0.05 in1.3 mm
04:59 AM 37.4°F3.0°C 35.8°F2.1°C 94% 1.8 mph NW2.9 kmh NW 2.5 mph4.0 kmh 29.79 in1008.8 mb 0.02 in0.5 mm 0.12 in3.0 mm 0.06 in1.5 mm
05:04 AM 37.4°F3.0°C 35.8°F2.1°C 94% 0.4 mph ENE0.6 kmh ENE 2.5 mph4.0 kmh 29.79 in1008.8 mb 0.07 in1.8 mm 0.05 in1.3 mm 0.06 in1.5 mm
05:09 AM 37.4°F3.0°C 35.8°F2.1°C 94% 1.3 mph ENE2.1 kmh ENE 2.5 mph4.0 kmh 29.79 in1008.8 mb 0.00 in0.0 mm 0.00 in0.0 mm 0.06 in1.5 mm
05:14 AM 37.4°F3.0°C 35.8°F2.1°C 94% 0.4 mph ENE0.6 kmh ENE 2.5 mph4.0 kmh 29.78 in1008.5 mb 0.00 in0.0 mm 0.00 in0.0 mm 0.06 in1.5 mm
05:19 AM 37.4°F3.0°C 35.8°F2.1°C 94% 0.2 mph NNE0.3 kmh NNE 2.5 mph4.0 kmh 29.78 in1008.5 mb 0.00 in0.0 mm 0.00 in0.0 mm 0.06 in1.5 mm
05:24 AM 37.4°F3.0°C 35.8°F2.1°C 94% 0.9 mph SE1.4 kmh SE 2.5 mph4.0 kmh 29.79 in1008.8 mb 0.00 in0.0 mm 0.00 in0.0 mm 0.06 in1.5 mm
05:29 AM 37.4°F3.0°C 35.8°F2.1°C 94% 1.1 mph WSW1.8 kmh WSW 2.5 mph4.0 kmh 29.78 in1008.5 mb 0.01 in0.3 mm 0.12 in3.0 mm 0.07 in1.8 mm
05:34 AM 37.4°F3.0°C 35.8°F2.1°C 94% 2.5 mph W4.0 kmh W 4.9 mph7.9 kmh 29.78 in1008.5 mb 0.01 in0.3 mm 0.00 in0.0 mm 0.07 in1.8 mm
05:39 AM 37.2°F2.9°C 35.6°F2.0°C 94% 0.9 mph NE1.4 kmh NE 2.5 mph4.0 kmh 29.78 in1008.5 mb 0.01 in0.3 mm 0.00 in0.0 mm 0.07 in1.8 mm
05:44 AM 37.2°F2.9°C 35.6°F2.0°C 94% 0.2 mph NE0.3 kmh NE 2.5 mph4.0 kmh 29.79 in1008.8 mb 0.02 in0.5 mm 0.12 in3.0 mm 0.08 in2.0 mm
05:49 AM 37.2°F2.9°C 35.6°F2.0°C 94% 4.3 mph NNE6.9 kmh NNE 4.9 mph7.9 kmh 29.78 in1008.5 mb 0.02 in0.5 mm 0.00 in0.0 mm 0.08 in2.0 mm
05:54 AM 37.2°F2.9°C 35.6°F2.0°C 94% 2.0 mph SE3.2 kmh SE 4.9 mph7.9 kmh 29.77 in1008.1 mb 0.03 in0.8 mm 0.12 in3.0 mm 0.09 in2.3 mm
05:59 AM 37.2°F2.9°C 35.6°F2.0°C 94% 2.5 mph N4.0 kmh N 4.9 mph7.9 kmh 29.78 in1008.5 mb 0.03 in0.8 mm 0.00 in0.0 mm 0.09 in2.3 mm
06:04 AM 37.2°F2.9°C 35.6°F2.0°C 94% 2.9 mph NNW4.7 kmh NNW 4.9 mph7.9 kmh 29.78 in1008.5 mb 0.00 in0.0 mm 0.00 in0.0 mm 0.09 in2.3 mm
06:09 AM 37.2°F2.9°C 35.6°F2.0°C 94% Calm Calm -- 29.78 in1008.5 mb 0.00 in0.0 mm 0.00 in0.0 mm 0.09 in2.3 mm
06:14 AM 37.2°F2.9°C 35.6°F2.0°C 94% Calm Calm -- 29.78 in1008.5 mb 0.00 in0.0 mm 0.00 in0.0 mm 0.09 in2.3 mm
06:19 AM 37.2°F2.9°C 35.6°F2.0°C 94% 2.7 mph NNE4.3 kmh NNE 4.9 mph7.9 kmh 29.78 in1008.5 mb 0.02 in0.5 mm 0.24 in6.1 mm 0.11 in2.8 mm
06:24 AM 37.2°F2.9°C 35.6°F2.0°C 94% 2.7 mph N4.3 kmh N 4.9 mph7.9 kmh 29.78 in1008.5 mb 0.02 in0.5 mm 0.00 in0.0 mm 0.11 in2.8 mm
06:29 AM 37.2°F2.9°C 35.6°F2.0°C 94% 1.3 mph NE2.1 kmh NE 2.5 mph4.0 kmh 29.77 in1008.1 mb 0.02 in0.5 mm 0.00 in0.0 mm 0.11 in2.8 mm
06:34 AM 37.2°F2.9°C 35.6°F2.0°C 94% 2.9 mph N4.7 kmh N 4.9 mph7.9 kmh 29.77 in1008.1 mb 0.02 in0.5 mm 0.00 in0.0 mm 0.11 in2.8 mm
06:39 AM 37.2°F2.9°C 35.6°F2.0°C 94% 2.0 mph N3.2 kmh N 2.5 mph4.0 kmh 29.78 in1008.5 mb 0.02 in0.5 mm 0.00 in0.0 mm 0.11 in2.8 mm
06:44 AM 37.2°F2.9°C 35.6°F2.0°C 94% 1.8 mph N2.9 kmh N 2.5 mph4.0 kmh 29.78 in1008.5 mb 0.02 in0.5 mm 0.00 in0.0 mm 0.11 in2.8 mm
06:49 AM 37.2°F2.9°C 35.6°F2.0°C 94% 5.6 mph ENE9.0 kmh ENE 7.4 mph11.9 kmh 29.77 in1008.1 mb 0.02 in0.5 mm 0.00 in0.0 mm 0.11 in2.8 mm
06:54 AM 37.2°F2.9°C 35.6°F2.0°C 94% 2.9 mph NW4.7 kmh NW 4.9 mph7.9 kmh 29.78 in1008.5 mb 0.02 in0.5 mm 0.00 in0.0 mm 0.11 in2.8 mm
06:59 AM 37.0°F2.8°C 35.4°F1.9°C 94% 0.9 mph NE1.4 kmh NE 2.5 mph4.0 kmh 29.79 in1008.8 mb 0.03 in0.8 mm 0.12 in3.0 mm 0.12 in3.0 mm
07:04 AM 37.0°F2.8°C 35.4°F1.9°C 94% 2.9 mph N4.7 kmh N 4.9 mph7.9 kmh 29.79 in1008.8 mb 0.00 in0.0 mm 0.00 in0.0 mm 0.12 in3.0 mm
07:09 AM 37.2°F2.9°C 35.6°F2.0°C 94% 2.7 mph NW4.3 kmh NW 4.9 mph7.9 kmh 29.79 in1008.8 mb 0.00 in0.0 mm 0.00 in0.0 mm 0.12 in3.0 mm
07:14 AM 37.2°F2.9°C 35.6°F2.0°C 94% 1.8 mph NNW2.9 kmh NNW 2.5 mph4.0 kmh 29.80 in1009.1 mb 0.00 in0.0 mm 0.00 in0.0 mm 0.12 in3.0 mm
07:19 AM 37.2°F2.9°C 35.6°F2.0°C 94% 4.3 mph WNW6.9 kmh WNW 4.9 mph7.9 kmh 29.80 in1009.1 mb 0.00 in0.0 mm 0.00 in0.0 mm 0.12 in3.0 mm
07:24 AM 37.2°F2.9°C 35.6°F2.0°C 94% 0.9 mph NE1.4 kmh NE 2.5 mph4.0 kmh 29.80 in1009.1 mb 0.00 in0.0 mm 0.00 in0.0 mm 0.12 in3.0 mm
07:29 AM 37.2°F2.9°C 35.6°F2.0°C 94% 3.4 mph N5.5 kmh N 4.9 mph7.9 kmh 29.80 in1009.1 mb 0.00 in0.0 mm 0.00 in0.0 mm 0.12 in3.0 mm
07:34 AM 37.2°F2.9°C 35.6°F2.0°C 94% 0.2 mph ENE0.3 kmh ENE 2.5 mph4.0 kmh 29.80 in1009.1 mb 0.00 in0.0 mm 0.00 in0.0 mm 0.12 in3.0 mm
07:39 AM 37.2°F2.9°C 35.6°F2.0°C 94% Calm Calm -- 29.80 in1009.1 mb 0.00 in0.0 mm 0.00 in0.0 mm 0.12 in3.0 mm
07:44 AM 37.2°F2.9°C 35.4°F1.9°C 93% 2.7 mph NNW4.3 kmh NNW 4.9 mph7.9 kmh 29.79 in1008.8 mb 0.00 in0.0 mm 0.00 in0.0 mm 0.12 in3.0 mm
07:49 AM 37.2°F2.9°C 35.4°F1.9°C 93% 1.8 mph NW2.9 kmh NW 2.5 mph4.0 kmh 29.80 in1009.1 mb 0.00 in0.0 mm 0.00 in0.0 mm 0.12 in3.0 mm
07:54 AM 37.0°F2.8°C 35.2°F1.8°C 93% 0.4 mph ENE0.6 kmh ENE 2.5 mph4.0 kmh 29.80 in1009.1 mb 0.00 in0.0 mm 0.00 in0.0 mm 0.12 in3.0 mm
07:59 AM 37.0°F2.8°C 35.2°F1.8°C 93% 4.9 mph N7.9 kmh N 7.4 mph11.9 kmh 29.79 in1008.8 mb 0.00 in0.0 mm 0.00 in0.0 mm 0.12 in3.0 mm
08:04 AM 37.0°F2.8°C 35.2°F1.8°C 93% 0.4 mph ENE0.6 kmh ENE 2.5 mph4.0 kmh 29.79 in1008.8 mb 0.00 in0.0 mm 0.00 in0.0 mm 0.12 in3.0 mm
08:09 AM 37.0°F2.8°C 35.2°F1.8°C 93% 3.6 mph N5.8 kmh N 4.9 mph7.9 kmh 29.79 in1008.8 mb 0.00 in0.0 mm 0.00 in0.0 mm 0.12 in3.0 mm
08:14 AM 37.0°F2.8°C 35.2°F1.8°C 93% 0.9 mph NNW1.4 kmh NNW 2.5 mph4.0 kmh 29.79 in1008.8 mb 0.00 in0.0 mm 0.00 in0.0 mm 0.12 in3.0 mm
08:19 AM 37.0°F2.8°C 35.2°F1.8°C 93% 2.7 mph N4.3 kmh N 4.9 mph7.9 kmh 29.79 in1008.8 mb 0.00 in0.0 mm 0.00 in0.0 mm 0.12 in3.0 mm
08:24 AM 37.0°F2.8°C 35.2°F1.8°C 93% 0.4 mph WSW0.6 kmh WSW 2.5 mph4.0 kmh 29.78 in1008.5 mb 0.00 in0.0 mm 0.00 in0.0 mm 0.12 in3.0 mm
08:29 AM 37.0°F2.8°C 35.2°F1.8°C 93% 0.9 mph NNW1.4 kmh NNW 2.5 mph4.0 kmh 29.79 in1008.8 mb 0.00 in0.0 mm 0.00 in0.0 mm 0.12 in3.0 mm
08:34 AM 37.0°F2.8°C 35.2°F1.8°C 93% 2.0 mph N3.2 kmh N 2.5 mph4.0 kmh 29.79 in1008.8 mb 0.00 in0.0 mm 0.00 in0.0 mm 0.12 in3.0 mm
08:39 AM 37.0°F2.8°C 35.2°F1.8°C 93% 2.9 mph NE4.7 kmh NE 4.9 mph7.9 kmh 29.78 in1008.5 mb 0.00 in0.0 mm 0.00 in0.0 mm 0.12 in3.0 mm
08:44 AM 37.0°F2.8°C 35.2°F1.8°C 93% Calm Calm -- 29.77 in1008.1 mb 0.00 in0.0 mm 0.00 in0.0 mm 0.12 in3.0 mm
08:49 AM 37.0°F2.8°C 35.2°F1.8°C 93% Calm Calm -- 29.78 in1008.5 mb 0.00 in0.0 mm 0.00 in0.0 mm 0.12 in3.0 mm
08:54 AM 37.2°F2.9°C 35.4°F1.9°C 93% 1.3 mph E2.1 kmh E 2.5 mph4.0 kmh 29.78 in1008.5 mb 0.00 in0.0 mm 0.00 in0.0 mm 0.12 in3.0 mm
08:59 AM 37.2°F2.9°C 35.4°F1.9°C 93% Calm Calm -- 29.79 in1008.8 mb 0.00 in0.0 mm 0.00 in0.0 mm 0.12 in3.0 mm
09:04 AM 37.2°F2.9°C 35.4°F1.9°C 93% 2.7 mph NW4.3 kmh NW 4.9 mph7.9 kmh 29.80 in1009.1 mb 0.00 in0.0 mm 0.00 in0.0 mm 0.12 in3.0 mm
09:09 AM 37.2°F2.9°C 35.4°F1.9°C 93% 1.1 mph ENE1.8 kmh ENE 2.5 mph4.0 kmh 29.80 in1009.1 mb 0.00 in0.0 mm 0.00 in0.0 mm 0.12 in3.0 mm
09:14 AM 37.2°F2.9°C 35.1°F1.7°C 92% Calm Calm -- 29.80 in1009.1 mb 0.00 in0.0 mm 0.00 in0.0 mm 0.12 in3.0 mm
09:19 AM 37.2°F2.9°C 35.1°F1.7°C 92% 1.3 mph N2.1 kmh N 2.5 mph4.0 kmh 29.80 in1009.1 mb 0.00 in0.0 mm 0.00 in0.0 mm 0.12 in3.0 mm
09:24 AM 37.2°F2.9°C 35.1°F1.7°C 92% 0.9 mph ENE1.4 kmh ENE 2.5 mph4.0 kmh 29.80 in1009.1 mb 0.00 in0.0 mm 0.00 in0.0 mm 0.12 in3.0 mm
09:29 AM 37.0°F2.8°C 35.2°F1.8°C 93% 0.2 mph NE0.3 kmh NE 2.5 mph4.0 kmh 29.80 in1009.1 mb 0.00 in0.0 mm 0.00 in0.0 mm 0.12 in3.0 mm
09:34 AM 37.0°F2.8°C 35.2°F1.8°C 93% 1.8 mph NE2.9 kmh NE 2.5 mph4.0 kmh 29.81 in1009.5 mb 0.00 in0.0 mm 0.00 in0.0 mm 0.12 in3.0 mm
09:39 AM 37.0°F2.8°C 34.9°F1.6°C 92% 0.2 mph ENE0.3 kmh ENE 2.5 mph4.0 kmh 29.81 in1009.5 mb 0.00 in0.0 mm 0.00 in0.0 mm 0.12 in3.0 mm
09:44 AM 36.9°F2.7°C 34.7°F1.5°C 92% 2.9 mph NNW4.7 kmh NNW 4.9 mph7.9 kmh 29.81 in1009.5 mb 0.00 in0.0 mm 0.00 in0.0 mm 0.12 in3.0 mm
09:49 AM 36.9°F2.7°C 34.7°F1.5°C 92% 2.0 mph N3.2 kmh N 2.5 mph4.0 kmh 29.80 in1009.1 mb 0.00 in0.0 mm 0.00 in0.0 mm 0.12 in3.0 mm
09:54 AM 37.0°F2.8°C 34.9°F1.6°C 92% 3.4 mph NW5.5 kmh NW 4.9 mph7.9 kmh 29.81 in1009.5 mb 0.00 in0.0 mm 0.00 in0.0 mm 0.12 in3.0 mm
09:59 AM 37.2°F2.9°C 35.1°F1.7°C 92% Calm Calm -- 29.80 in1009.1 mb 0.00 in0.0 mm 0.00 in0.0 mm 0.12 in3.0 mm
10:04 AM 37.6°F3.1°C 35.2°F1.8°C 91% 2.0 mph WNW3.2 kmh WNW 2.5 mph4.0 kmh 29.81 in1009.5 mb 0.00 in0.0 mm 0.00 in0.0 mm 0.12 in3.0 mm
10:09 AM 37.8°F3.2°C 35.1°F1.7°C 90% 0.2 mph NE0.3 kmh NE 2.5 mph4.0 kmh 29.81 in1009.5 mb 0.00 in0.0 mm 0.00 in0.0 mm 0.12 in3.0 mm
10:14 AM 39.6°F4.2°C 36.7°F2.6°C 89% 1.8 mph NNE2.9 kmh NNE 4.9 mph7.9 kmh 29.81 in1009.5 mb 0.00 in0.0 mm 0.00 in0.0 mm 0.12 in3.0 mm
10:19 AM 39.6°F4.2°C 36.0°F2.2°C 87% 5.6 mph N9.0 kmh N 7.4 mph11.9 kmh 29.82 in1009.8 mb 0.00 in0.0 mm 0.00 in0.0 mm 0.12 in3.0 mm
10:24 AM 39.7°F4.3°C 36.1°F2.3°C 87% 2.7 mph NW4.3 kmh NW 4.9 mph7.9 kmh 29.82 in1009.8 mb 0.00 in0.0 mm 0.00 in0.0 mm 0.12 in3.0 mm
10:29 AM 39.9°F4.4°C 36.3°F2.4°C 87% 2.7 mph NNE4.3 kmh NNE 4.9 mph7.9 kmh 29.82 in1009.8 mb 0.00 in0.0 mm 0.00 in0.0 mm 0.12 in3.0 mm
10:34 AM 40.1°F4.5°C 36.3°F2.4°C 86% 3.4 mph NNE5.5 kmh NNE 4.9 mph7.9 kmh 29.82 in1009.8 mb 0.00 in0.0 mm 0.00 in0.0 mm 0.12 in3.0 mm
10:39 AM 40.3°F4.6°C 36.7°F2.6°C 87% 6.0 mph NE9.7 kmh NE 7.4 mph11.9 kmh 29.81 in1009.5 mb 0.00 in0.0 mm 0.00 in0.0 mm 0.12 in3.0 mm
10:44 AM 40.6°F4.8°C 37.0°F2.8°C 87% 3.6 mph WNW5.8 kmh WNW 4.9 mph7.9 kmh 29.82 in1009.8 mb 0.00 in0.0 mm 0.00 in0.0 mm 0.12 in3.0 mm
10:49 AM 40.8°F4.9°C 36.7°F2.6°C 85% 2.0 mph NW3.2 kmh NW 4.9 mph7.9 kmh 29.82 in1009.8 mb 0.00 in0.0 mm 0.00 in0.0 mm 0.12 in3.0 mm
10:54 AM 41.2°F5.1°C 37.6°F3.1°C 87% 7.6 mph NW12.2 kmh NW 9.8 mph15.8 kmh 29.83 in1010.2 mb 0.00 in0.0 mm 0.00 in0.0 mm 0.12 in3.0 mm
10:59 AM 41.5°F5.3°C 37.4°F3.0°C 85% 5.1 mph NW8.2 kmh NW 7.4 mph11.9 kmh 29.82 in1009.8 mb 0.00 in0.0 mm 0.00 in0.0 mm 0.12 in3.0 mm
11:04 AM 41.9°F5.5°C 37.4°F3.0°C 84% 8.1 mph NW13.0 kmh NW 9.8 mph15.8 kmh 29.83 in1010.2 mb 0.00 in0.0 mm 0.00 in0.0 mm 0.12 in3.0 mm
11:09 AM 42.3°F5.7°C 37.4°F3.0°C 83% 4.3 mph WSW6.9 kmh WSW 4.9 mph7.9 kmh 29.83 in1010.2 mb 0.00 in0.0 mm 0.00 in0.0 mm 0.12 in3.0 mm
11:14 AM 42.8°F6.0°C 37.8°F3.2°C 82% 3.4 mph S5.5 kmh S 4.9 mph7.9 kmh 29.83 in1010.2 mb 0.00 in0.0 mm 0.00 in0.0 mm 0.12 in3.0 mm
11:19 AM 43.2°F6.2°C 37.8°F3.2°C 81% 2.5 mph ESE4.0 kmh ESE 4.9 mph7.9 kmh 29.83 in1010.2 mb 0.00 in0.0 mm 0.00 in0.0 mm 0.12 in3.0 mm
11:24 AM 43.5°F6.4°C 38.5°F3.6°C 82% 1.1 mph NNE1.8 kmh NNE 2.5 mph4.0 kmh 29.83 in1010.2 mb 0.00 in0.0 mm 0.00 in0.0 mm 0.12 in3.0 mm
11:29 AM 44.1°F6.7°C 38.7°F3.7°C 81% Calm Calm -- 29.82 in1009.8 mb 0.00 in0.0 mm 0.00 in0.0 mm 0.12 in3.0 mm
11:34 AM 44.4°F6.9°C 38.3°F3.5°C 79% 2.9 mph NW4.7 kmh NW 4.9 mph7.9 kmh 29.82 in1009.8 mb 0.00 in0.0 mm 0.00 in0.0 mm 0.12 in3.0 mm
11:39 AM 45.0°F7.2°C 39.2°F4.0°C 80% 4.5 mph NW7.2 kmh NW 7.4 mph11.9 kmh 29.82 in1009.8 mb 0.00 in0.0 mm 0.00 in0.0 mm 0.12 in3.0 mm
11:44 AM 45.3°F7.4°C 39.2°F4.0°C 79% 6.0 mph NW9.7 kmh NW 7.4 mph11.9 kmh 29.82 in1009.8 mb 0.00 in0.0 mm 0.00 in0.0 mm 0.12 in3.0 mm
11:49 AM 45.7°F7.6°C 39.2°F4.0°C 78% 0.2 mph NNE0.3 kmh NNE 2.5 mph4.0 kmh 29.82 in1009.8 mb 0.00 in0.0 mm 0.00 in0.0 mm 0.12 in3.0 mm
11:54 AM 46.2°F7.9°C 39.7°F4.3°C 78% 0.4 mph ENE0.6 kmh ENE 2.5 mph4.0 kmh 29.81 in1009.5 mb 0.00 in0.0 mm 0.00 in0.0 mm 0.12 in3.0 mm
11:59 AM 46.6°F8.1°C 39.7°F4.3°C 77% Calm Calm -- 29.80 in1009.1 mb 0.00 in0.0 mm 0.00 in0.0 mm 0.12 in3.0 mm
12:04 PM 46.9°F8.3°C 40.5°F4.7°C 78% 2.7 mph NE4.3 kmh NE 4.9 mph7.9 kmh 29.81 in1009.5 mb 0.00 in0.0 mm 0.00 in0.0 mm 0.12 in3.0 mm
12:09 PM 47.1°F8.4°C 40.6°F4.8°C 78% 4.0 mph NW6.4 kmh NW 7.4 mph11.9 kmh 29.81 in1009.5 mb 0.00 in0.0 mm 0.00 in0.0 mm 0.12 in3.0 mm
12:14 PM 47.3°F8.5°C 41.2°F5.1°C 79% 2.5 mph NW4.0 kmh NW 4.9 mph7.9 kmh 29.80 in1009.1 mb 0.00 in0.0 mm 0.00 in0.0 mm 0.12 in3.0 mm
12:19 PM 47.5°F8.6°C 41.0°F5.0°C 78% 2.5 mph SSE4.0 kmh SSE 2.5 mph4.0 kmh 29.80 in1009.1 mb 0.00 in0.0 mm 0.00 in0.0 mm 0.12 in3.0 mm
12:24 PM 47.7°F8.7°C 41.2°F5.1°C 78% 0.2 mph E0.3 kmh E 2.5 mph4.0 kmh 29.80 in1009.1 mb 0.00 in0.0 mm 0.00 in0.0 mm 0.12 in3.0 mm
12:29 PM 48.0°F8.9°C 40.1°F4.5°C 74% 2.0 mph SSW3.2 kmh SSW 2.5 mph4.0 kmh 29.80 in1009.1 mb 0.00 in0.0 mm 0.00 in0.0 mm 0.12 in3.0 mm
12:34 PM 48.2°F9.0°C 41.4°F5.2°C 77% 2.7 mph N4.3 kmh N 4.9 mph7.9 kmh 29.79 in1008.8 mb 0.00 in0.0 mm 0.00 in0.0 mm 0.12 in3.0 mm
12:39 PM 48.7°F9.3°C 40.8°F4.9°C 74% 4.9 mph WSW7.9 kmh WSW 7.4 mph11.9 kmh 29.79 in1008.8 mb 0.00 in0.0 mm 0.00 in0.0 mm 0.12 in3.0 mm
12:44 PM 49.1°F9.5°C 41.2°F5.1°C 74% 3.6 mph N5.8 kmh N 4.9 mph7.9 kmh 29.79 in1008.8 mb 0.00 in0.0 mm 0.00 in0.0 mm 0.12 in3.0 mm
12:49 PM 49.6°F9.8°C 41.0°F5.0°C 72% 6.5 mph WSW10.5 kmh WSW 7.4 mph11.9 kmh 29.79 in1008.8 mb 0.00 in0.0 mm 0.00 in0.0 mm 0.12 in3.0 mm
12:54 PM 50.0°F10.0°C 40.6°F4.8°C 70% 3.6 mph N5.8 kmh N 4.9 mph7.9 kmh 29.78 in1008.5 mb 0.00 in0.0 mm 0.00 in0.0 mm 0.12 in3.0 mm
12:59 PM 50.2°F10.1°C 40.8°F4.9°C 70% 3.4 mph NE5.5 kmh NE 4.9 mph7.9 kmh 29.78 in1008.5 mb 0.00 in0.0 mm 0.00 in0.0 mm 0.12 in3.0 mm
01:04 PM 50.4°F10.2°C 40.3°F4.6°C 68% 1.3 mph E2.1 kmh E 2.5 mph4.0 kmh 29.77 in1008.1 mb 0.00 in0.0 mm 0.00 in0.0 mm 0.12 in3.0 mm
01:09 PM 50.7°F10.4°C 40.6°F4.8°C 68% 2.7 mph W4.3 kmh W 4.9 mph7.9 kmh 29.77 in1008.1 mb 0.00 in0.0 mm 0.00 in0.0 mm 0.12 in3.0 mm
01:14 PM 50.9°F10.5°C 40.3°F4.6°C 67% 1.8 mph SW2.9 kmh SW 4.9 mph7.9 kmh 29.77 in1008.1 mb 0.00 in0.0 mm 0.00 in0.0 mm 0.12 in3.0 mm
01:19 PM 51.1°F10.6°C 39.7°F4.3°C 65% 2.9 mph NE4.7 kmh NE 4.9 mph7.9 kmh 29.76 in1007.8 mb 0.00 in0.0 mm 0.00 in0.0 mm 0.12 in3.0 mm
01:24 PM 51.4°F10.8°C 39.7°F4.3°C 64% 1.8 mph ENE2.9 kmh ENE 2.5 mph4.0 kmh 29.75 in1007.5 mb 0.00 in0.0 mm 0.00 in0.0 mm 0.12 in3.0 mm
01:29 PM 51.6°F10.9°C 39.9°F4.4°C 64% 3.6 mph NNW5.8 kmh NNW 7.4 mph11.9 kmh 29.75 in1007.5 mb 0.00 in0.0 mm 0.00 in0.0 mm 0.12 in3.0 mm
01:34 PM 51.6°F10.9°C 40.6°F4.8°C 66% 6.7 mph NNE10.8 kmh NNE 9.8 mph15.8 kmh 29.75 in1007.5 mb 0.00 in0.0 mm 0.00 in0.0 mm 0.12 in3.0 mm
01:39 PM 51.6°F10.9°C 40.6°F4.8°C 66% 0.2 mph WNW0.3 kmh WNW 2.5 mph4.0 kmh 29.75 in1007.5 mb 0.00 in0.0 mm 0.00 in0.0 mm 0.12 in3.0 mm
01:44 PM 51.8°F11.0°C 39.2°F4.0°C 62% 0.9 mph W1.4 kmh W 2.5 mph4.0 kmh 29.75 in1007.5 mb 0.00 in0.0 mm 0.00 in0.0 mm 0.12 in3.0 mm
01:49 PM 51.8°F11.0°C 39.2°F4.0°C 62% 2.0 mph SW3.2 kmh SW 2.5 mph4.0 kmh 29.75 in1007.5 mb 0.00 in0.0 mm 0.00 in0.0 mm 0.12 in3.0 mm
01:54 PM 52.0°F11.1°C 39.4°F4.1°C 62% 4.3 mph SW6.9 kmh SW 4.9 mph7.9 kmh 29.74 in1007.1 mb 0.00 in0.0 mm 0.00 in0.0 mm 0.12 in3.0 mm
01:59 PM 52.0°F11.1°C 38.1°F3.4°C 59% 6.5 mph WNW10.5 kmh WNW 7.4 mph11.9 kmh 29.74 in1007.1 mb 0.00 in0.0 mm 0.00 in0.0 mm 0.12 in3.0 mm
02:04 PM 52.3°F11.3°C 39.7°F4.3°C 62% 1.1 mph WSW1.8 kmh WSW 2.5 mph4.0 kmh 29.73 in1006.8 mb 0.00 in0.0 mm 0.00 in0.0 mm 0.12 in3.0 mm
02:09 PM 52.7°F11.5°C 38.3°F3.5°C 58% 2.5 mph N4.0 kmh N 4.9 mph7.9 kmh 29.73 in1006.8 mb 0.00 in0.0 mm 0.00 in0.0 mm 0.12 in3.0 mm
02:14 PM 52.7°F11.5°C 37.9°F3.3°C 57% 2.7 mph NE4.3 kmh NE 4.9 mph7.9 kmh 29.73 in1006.8 mb 0.00 in0.0 mm 0.00 in0.0 mm 0.12 in3.0 mm
02:19 PM 52.9°F11.6°C 32.7°F0.4°C 46% 2.9 mph NW4.7 kmh NW 4.9 mph7.9 kmh 29.73 in1006.8 mb 0.00 in0.0 mm 0.00 in0.0 mm 0.12 in3.0 mm
02:24 PM 52.9°F11.6°C 31.6°F-0.2°C 44% 6.7 mph NNW10.8 kmh NNW 9.8 mph15.8 kmh 29.72 in1006.4 mb 0.00 in0.0 mm 0.00 in0.0 mm 0.12 in3.0 mm
02:29 PM 52.9°F11.6°C 32.2°F0.1°C 45% 9.2 mph WNW14.8 kmh WNW 12.3 mph19.8 kmh 29.72 in1006.4 mb 0.00 in0.0 mm 0.00 in0.0 mm 0.12 in3.0 mm
02:34 PM 53.1°F11.7°C 32.9°F0.5°C 46% 2.5 mph SE4.0 kmh SE 4.9 mph7.9 kmh 29.72 in1006.4 mb 0.00 in0.0 mm 0.00 in0.0 mm 0.12 in3.0 mm
02:39 PM 53.2°F11.8°C 31.3°F-0.4°C 43% 3.6 mph SE5.8 kmh SE 4.9 mph7.9 kmh 29.72 in1006.4 mb 0.00 in0.0 mm 0.00 in0.0 mm 0.12 in3.0 mm
02:44 PM 53.2°F11.8°C 30.2°F-1.0°C 41% 2.7 mph SSW4.3 kmh SSW 4.9 mph7.9 kmh 29.72 in1006.4 mb 0.00 in0.0 mm 0.00 in0.0 mm 0.12 in3.0 mm
02:49 PM 53.4°F11.9°C 32.7°F0.4°C 45% 1.3 mph W2.1 kmh W 2.5 mph4.0 kmh 29.72 in1006.4 mb 0.00 in0.0 mm 0.00 in0.0 mm 0.12 in3.0 mm
02:54 PM 53.8°F12.1°C 32.4°F0.2°C 44% 2.9 mph SE4.7 kmh SE 4.9 mph7.9 kmh 29.72 in1006.4 mb 0.00 in0.0 mm 0.00 in0.0 mm 0.12 in3.0 mm
02:59 PM 53.8°F12.1°C 31.8°F-0.1°C 43% 2.5 mph S4.0 kmh S 4.9 mph7.9 kmh 29.72 in1006.4 mb 0.00 in0.0 mm 0.00 in0.0 mm 0.12 in3.0 mm
03:04 PM 53.8°F12.1°C 31.3°F-0.4°C 42% 3.6 mph N5.8 kmh N 4.9 mph7.9 kmh 29.72 in1006.4 mb 0.00 in0.0 mm 0.00 in0.0 mm 0.12 in3.0 mm
03:09 PM 53.8°F12.1°C 31.3°F-0.4°C 42% 8.7 mph W14.0 kmh W 15.0 mph24.1 kmh 29.72 in1006.4 mb 0.00 in0.0 mm 0.00 in0.0 mm 0.12 in3.0 mm
03:14 PM 53.8°F12.1°C 30.7°F-0.7°C 41% 4.3 mph WNW6.9 kmh WNW 7.4 mph11.9 kmh 29.72 in1006.4 mb 0.00 in0.0 mm 0.00 in0.0 mm 0.12 in3.0 mm
03:19 PM 53.8°F12.1°C 31.3°F-0.4°C 42% 2.0 mph NE3.2 kmh NE 2.5 mph4.0 kmh 29.72 in1006.4 mb 0.00 in0.0 mm 0.00 in0.0 mm 0.12 in3.0 mm
03:24 PM 54.0°F12.2°C 30.2°F-1.0°C 40% 3.6 mph NW5.8 kmh NW 7.4 mph11.9 kmh 29.71 in1006.1 mb 0.00 in0.0 mm 0.00 in0.0 mm 0.12 in3.0 mm
03:29 PM 54.0°F12.2°C 30.2°F-1.0°C 40% 1.8 mph S2.9 kmh S 2.5 mph4.0 kmh 29.72 in1006.4 mb 0.00 in0.0 mm 0.00 in0.0 mm 0.12 in3.0 mm
03:34 PM 54.0°F12.2°C 31.5°F-0.3°C 42% 3.4 mph N5.5 kmh N 4.9 mph7.9 kmh 29.71 in1006.1 mb 0.00 in0.0 mm 0.00 in0.0 mm 0.12 in3.0 mm
03:39 PM 54.1°F12.3°C 30.4°F-0.9°C 40% 1.1 mph E1.8 kmh E 2.5 mph4.0 kmh 29.72 in1006.4 mb 0.00 in0.0 mm 0.00 in0.0 mm 0.12 in3.0 mm
03:44 PM 54.1°F12.3°C 30.9°F-0.6°C 41% 0.4 mph WSW0.6 kmh WSW 2.5 mph4.0 kmh 29.72 in1006.4 mb 0.00 in0.0 mm 0.00 in0.0 mm 0.12 in3.0 mm
03:49 PM 54.1°F12.3°C 30.4°F-0.9°C 40% 3.6 mph NW5.8 kmh NW 4.9 mph7.9 kmh 29.71 in1006.1 mb 0.00 in0.0 mm 0.00 in0.0 mm 0.12 in3.0 mm
03:54 PM 54.3°F12.4°C 30.6°F-0.8°C 40% 7.4 mph N11.9 kmh N 9.8 mph15.8 kmh 29.71 in1006.1 mb 0.00 in0.0 mm 0.00 in0.0 mm 0.12 in3.0 mm
03:59 PM 54.5°F12.5°C 30.7°F-0.7°C 40% 3.6 mph W5.8 kmh W 4.9 mph7.9 kmh 29.71 in1006.1 mb 0.00 in0.0 mm 0.00 in0.0 mm 0.12 in3.0 mm
04:04 PM 54.7°F12.6°C 30.9°F-0.6°C 40% 2.0 mph W3.2 kmh W 2.5 mph4.0 kmh 29.71 in1006.1 mb 0.00 in0.0 mm 0.00 in0.0 mm 0.12 in3.0 mm
04:09 PM 55.0°F12.8°C 31.1°F-0.5°C 40% 3.4 mph WSW5.5 kmh WSW 4.9 mph7.9 kmh 29.71 in1006.1 mb 0.00 in0.0 mm 0.00 in0.0 mm 0.12 in3.0 mm
04:14 PM 55.2°F12.9°C 31.3°F-0.4°C 40% 2.5 mph NW4.0 kmh NW 4.9 mph7.9 kmh 29.71 in1006.1 mb 0.00 in0.0 mm 0.00 in0.0 mm 0.12 in3.0 mm
04:19 PM 55.6°F13.1°C 31.6°F-0.2°C 40% 4.0 mph SW6.4 kmh SW 4.9 mph7.9 kmh 29.71 in1006.1 mb 0.00 in0.0 mm 0.00 in0.0 mm 0.12 in3.0 mm
04:24 PM 55.6°F13.1°C 31.1°F-0.5°C 39% 1.3 mph SSW2.1 kmh SSW 2.5 mph4.0 kmh 29.71 in1006.1 mb 0.00 in0.0 mm 0.00 in0.0 mm 0.12 in3.0 mm
04:29 PM 55.8°F13.2°C 31.8°F-0.1°C 40% 2.5 mph NE4.0 kmh NE 4.9 mph7.9 kmh 29.71 in1006.1 mb 0.00 in0.0 mm 0.00 in0.0 mm 0.12 in3.0 mm
04:34 PM 56.1°F13.4°C 30.9°F-0.6°C 38% 3.6 mph SW5.8 kmh SW 4.9 mph7.9 kmh 29.70 in1005.8 mb 0.00 in0.0 mm 0.00 in0.0 mm 0.12 in3.0 mm
04:39 PM 56.1°F13.4°C 31.5°F-0.3°C 39% 0.2 mph ENE0.3 kmh ENE 2.5 mph4.0 kmh 29.71 in1006.1 mb 0.00 in0.0 mm 0.00 in0.0 mm 0.12 in3.0 mm
04:44 PM 56.1°F13.4°C 30.9°F-0.6°C 38% 1.1 mph NNE1.8 kmh NNE 2.5 mph4.0 kmh 29.71 in1006.1 mb 0.00 in0.0 mm 0.00 in0.0 mm 0.12 in3.0 mm
04:49 PM 56.3°F13.5°C 31.1°F-0.5°C 38% 4.0 mph N6.4 kmh N 4.9 mph7.9 kmh 29.71 in1006.1 mb 0.00 in0.0 mm 0.00 in0.0 mm 0.12 in3.0 mm
04:54 PM 56.3°F13.5°C 31.6°F-0.2°C 39% 2.0 mph WSW3.2 kmh WSW 2.5 mph4.0 kmh 29.71 in1006.1 mb 0.00 in0.0 mm 0.00 in0.0 mm 0.12 in3.0 mm
04:59 PM 56.3°F13.5°C 31.6°F-0.2°C 39% 2.0 mph SE3.2 kmh SE 2.5 mph4.0 kmh 29.71 in1006.1 mb 0.00 in0.0 mm 0.00 in0.0 mm 0.12 in3.0 mm
05:04 PM 56.3°F13.5°C 30.4°F-0.9°C 37% 1.8 mph NW2.9 kmh NW 2.5 mph4.0 kmh 29.70 in1005.8 mb 0.00 in0.0 mm 0.00 in0.0 mm 0.12 in3.0 mm
05:09 PM 56.3°F13.5°C 32.4°F0.2°C 40% 0.2 mph ESE0.3 kmh ESE 2.5 mph4.0 kmh 29.71 in1006.1 mb 0.00 in0.0 mm 0.00 in0.0 mm 0.12 in3.0 mm
05:14 PM 56.1°F13.4°C 31.5°F-0.3°C 39% Calm Calm -- 29.71 in1006.1 mb 0.00 in0.0 mm 0.00 in0.0 mm 0.12 in3.0 mm
05:19 PM 56.3°F13.5°C 31.6°F-0.2°C 39% 2.9 mph SW4.7 kmh SW 4.9 mph7.9 kmh 29.70 in1005.8 mb 0.00 in0.0 mm 0.00 in0.0 mm 0.12 in3.0 mm
05:24 PM 56.3°F13.5°C 31.6°F-0.2°C 39% 1.3 mph S2.1 kmh S 2.5 mph4.0 kmh 29.71 in1006.1 mb 0.00 in0.0 mm 0.00 in0.0 mm 0.12 in3.0 mm
05:29 PM 56.3°F13.5°C 31.1°F-0.5°C 38% 0.4 mph N0.6 kmh N 2.5 mph4.0 kmh 29.71 in1006.1 mb 0.00 in0.0 mm 0.00 in0.0 mm 0.12 in3.0 mm
05:34 PM 56.5°F13.6°C 31.3°F-0.4°C 38% Calm Calm -- 29.71 in1006.1 mb 0.00 in0.0 mm 0.00 in0.0 mm 0.12 in3.0 mm
05:39 PM 56.7°F13.7°C 32.0°F0.0°C 39% Calm Calm -- 29.71 in1006.1 mb 0.00 in0.0 mm 0.00 in0.0 mm 0.12 in3.0 mm
05:44 PM 56.7°F13.7°C 32.0°F0.0°C 39% 0.9 mph SW1.4 kmh SW 2.5 mph4.0 kmh 29.70 in1005.8 mb 0.00 in0.0 mm 0.00 in0.0 mm 0.12 in3.0 mm
05:49 PM 56.8°F13.8°C 32.2°F0.1°C 39% Calm Calm -- 29.70 in1005.8 mb 0.00 in0.0 mm 0.00 in0.0 mm 0.12 in3.0 mm
05:54 PM 56.7°F13.7°C 32.0°F0.0°C 39% 2.7 mph NNE4.3 kmh NNE 4.9 mph7.9 kmh 29.71 in1006.1 mb 0.00 in0.0 mm 0.00 in0.0 mm 0.12 in3.0 mm
05:59 PM 56.5°F13.6°C 32.5°F0.3°C 40% Calm Calm -- 29.70 in1005.8 mb 0.00 in0.0 mm 0.00 in0.0 mm 0.12 in3.0 mm
06:04 PM 56.3°F13.5°C 32.9°F0.5°C 41% 0.2 mph NE0.3 kmh NE 2.5 mph4.0 kmh 29.70 in1005.8 mb 0.00 in0.0 mm 0.00 in0.0 mm 0.12 in3.0 mm
06:09 PM 56.1°F13.4°C 32.7°F0.4°C 41% Calm Calm -- 29.70 in1005.8 mb 0.00 in0.0 mm 0.00 in0.0 mm 0.12 in3.0 mm
06:14 PM 55.9°F13.3°C 33.3°F0.7°C 42% Calm Calm -- 29.70 in1005.8 mb 0.00 in0.0 mm 0.00 in0.0 mm 0.12 in3.0 mm
06:19 PM 55.6°F13.1°C 32.9°F0.5°C 42% Calm Calm -- 29.70 in1005.8 mb 0.00 in0.0 mm 0.00 in0.0 mm 0.12 in3.0 mm
06:24 PM 55.4°F13.0°C 33.3°F0.7°C 43% Calm Calm -- 29.70 in1005.8 mb 0.00 in0.0 mm 0.00 in0.0 mm 0.12 in3.0 mm
06:29 PM 55.0°F12.8°C 34.7°F1.5°C 46% Calm Calm -- 29.71 in1006.1 mb 0.00 in0.0 mm 0.00 in0.0 mm 0.12 in3.0 mm
06:34 PM 54.7°F12.6°C 34.9°F1.6°C 47% Calm Calm -- 29.71 in1006.1 mb 0.00 in0.0 mm 0.00 in0.0 mm 0.12 in3.0 mm
06:39 PM 54.1°F12.3°C 36.5°F2.5°C 51% Calm Calm -- 29.71 in1006.1 mb 0.00 in0.0 mm 0.00 in0.0 mm 0.12 in3.0 mm
06:44 PM 53.2°F11.8°C 37.0°F2.8°C 54% Calm Calm -- 29.72 in1006.4 mb 0.00 in0.0 mm 0.00 in0.0 mm 0.12 in3.0 mm
06:49 PM 52.3°F11.3°C 37.6°F3.1°C 57% Calm Calm -- 29.72 in1006.4 mb 0.00 in0.0 mm 0.00 in0.0 mm 0.12 in3.0 mm
06:54 PM 51.3°F10.7°C 37.9°F3.3°C 60% Calm Calm -- 29.72 in1006.4 mb 0.00 in0.0 mm 0.00 in0.0 mm 0.12 in3.0 mm
06:59 PM 50.4°F10.2°C 37.9°F3.3°C 62% Calm Calm -- 29.72 in1006.4 mb 0.00 in0.0 mm 0.00 in0.0 mm 0.12 in3.0 mm
07:04 PM 49.6°F9.8°C 37.6°F3.1°C 63% Calm Calm -- 29.72 in1006.4 mb 0.00 in0.0 mm 0.00 in0.0 mm 0.12 in3.0 mm
07:09 PM 48.7°F9.3°C 37.2°F2.9°C 64% Calm Calm -- 29.72 in1006.4 mb 0.00 in0.0 mm 0.00 in0.0 mm 0.12 in3.0 mm
07:14 PM 47.7°F8.7°C 36.9°F2.7°C 66% Calm Calm -- 29.72 in1006.4 mb 0.00 in0.0 mm 0.00 in0.0 mm 0.12 in3.0 mm
07:19 PM 46.8°F8.2°C 36.9°F2.7°C 68% Calm Calm -- 29.72 in1006.4 mb 0.00 in0.0 mm 0.00 in0.0 mm 0.12 in3.0 mm
07:24 PM 46.0°F7.8°C 36.5°F2.5°C 69% Calm Calm -- 29.72 in1006.4 mb 0.00 in0.0 mm 0.00 in0.0 mm 0.12 in3.0 mm
07:29 PM 45.1°F7.3°C 36.0°F2.2°C 70% Calm Calm -- 29.73 in1006.8 mb 0.00 in0.0 mm 0.00 in0.0 mm 0.12 in3.0 mm
07:34 PM 44.4°F6.9°C 35.6°F2.0°C 71% Calm Calm -- 29.73 in1006.8 mb 0.00 in0.0 mm 0.00 in0.0 mm 0.12 in3.0 mm
07:39 PM 43.5°F6.4°C 35.1°F1.7°C 72% Calm Calm -- 29.74 in1007.1 mb 0.00 in0.0 mm 0.00 in0.0 mm 0.12 in3.0 mm
07:44 PM 42.6°F5.9°C 34.9°F1.6°C 74% Calm Calm -- 29.74 in1007.1 mb 0.00 in0.0 mm 0.00 in0.0 mm 0.12 in3.0 mm
07:49 PM 42.1°F5.6°C 35.1°F1.7°C 76% Calm Calm -- 29.75 in1007.5 mb 0.00 in0.0 mm 0.00 in0.0 mm 0.12 in3.0 mm
07:54 PM 41.7°F5.4°C 35.1°F1.7°C 77% Calm Calm -- 29.76 in1007.8 mb 0.00 in0.0 mm 0.00 in0.0 mm 0.12 in3.0 mm
07:59 PM 41.2°F5.1°C 34.5°F1.4°C 77% Calm Calm -- 29.77 in1008.1 mb 0.00 in0.0 mm 0.00 in0.0 mm 0.12 in3.0 mm
08:04 PM 40.6°F4.8°C 34.3°F1.3°C 78% Calm Calm -- 29.77 in1008.1 mb 0.00 in0.0 mm 0.00 in0.0 mm 0.12 in3.0 mm
08:09 PM 40.3°F4.6°C 34.0°F1.1°C 78% Calm Calm -- 29.77 in1008.1 mb 0.00 in0.0 mm 0.00 in0.0 mm 0.12 in3.0 mm
08:14 PM 39.9°F4.4°C 34.0°F1.1°C 79% Calm Calm -- 29.77 in1008.1 mb 0.00 in0.0 mm 0.00 in0.0 mm 0.12 in3.0 mm
08:19 PM 39.6°F4.2°C 33.6°F0.9°C 79% Calm Calm -- 29.78 in1008.5 mb 0.00 in0.0 mm 0.00 in0.0 mm 0.12 in3.0 mm
08:24 PM 39.2°F4.0°C 33.8°F1.0°C 81% Calm Calm -- 29.77 in1008.1 mb 0.00 in0.0 mm 0.00 in0.0 mm 0.12 in3.0 mm
08:29 PM 38.8°F3.8°C 33.4°F0.8°C 81% Calm Calm -- 29.77 in1008.1 mb 0.00 in0.0 mm 0.00 in0.0 mm 0.12 in3.0 mm
08:34 PM 38.7°F3.7°C 33.6°F0.9°C 82% Calm Calm -- 29.77 in1008.1 mb 0.00 in0.0 mm 0.00 in0.0 mm 0.12 in3.0 mm
08:39 PM 38.1°F3.4°C 33.4°F0.8°C 83% Calm Calm -- 29.78 in1008.5 mb 0.00 in0.0 mm 0.00 in0.0 mm 0.12 in3.0 mm
08:44 PM 37.9°F3.3°C 35.1°F1.7°C 89% Calm Calm -- 29.78 in1008.5 mb 0.00 in0.0 mm 0.00 in0.0 mm 0.12 in3.0 mm
08:49 PM 37.8°F3.2°C 34.9°F1.6°C 89% Calm Calm -- 29.78 in1008.5 mb 0.00 in0.0 mm 0.00 in0.0 mm 0.12 in3.0 mm
08:54 PM 37.6°F3.1°C 34.7°F1.5°C 89% Calm Calm -- 29.78 in1008.5 mb 0.00 in0.0 mm 0.00 in0.0 mm 0.12 in3.0 mm
08:59 PM 37.4°F3.0°C 34.5°F1.4°C 89% Calm Calm -- 29.78 in1008.5 mb 0.00 in0.0 mm 0.00 in0.0 mm 0.12 in3.0 mm
09:04 PM 37.4°F3.0°C 34.5°F1.4°C 89% Calm Calm -- 29.78 in1008.5 mb 0.00 in0.0 mm 0.00 in0.0 mm 0.12 in3.0 mm
09:09 PM 37.2°F2.9°C 34.3°F1.3°C 89% Calm Calm -- 29.78 in1008.5 mb 0.00 in0.0 mm 0.00 in0.0 mm 0.12 in3.0 mm
09:14 PM 37.0°F2.8°C 34.2°F1.2°C 89% Calm Calm -- 29.78 in1008.5 mb 0.00 in0.0 mm 0.00 in0.0 mm 0.12 in3.0 mm
09:19 PM 36.9°F2.7°C 34.0°F1.1°C 89% Calm Calm -- 29.78 in1008.5 mb 0.00 in0.0 mm 0.00 in0.0 mm 0.12 in3.0 mm
09:24 PM 36.7°F2.6°C 33.8°F1.0°C 89% Calm Calm -- 29.78 in1008.5 mb 0.00 in0.0 mm 0.00 in0.0 mm 0.12 in3.0 mm
09:29 PM 36.7°F2.6°C 34.0°F1.1°C 90% Calm Calm -- 29.78 in1008.5 mb 0.00 in0.0 mm 0.00 in0.0 mm 0.12 in3.0 mm
09:34 PM 36.5°F2.5°C 33.8°F1.0°C 90% Calm Calm -- 29.78 in1008.5 mb 0.00 in0.0 mm 0.00 in0.0 mm 0.12 in3.0 mm
09:39 PM 36.3°F2.4°C 33.6°F0.9°C 90% Calm Calm -- 29.77 in1008.1 mb 0.00 in0.0 mm 0.00 in0.0 mm 0.12 in3.0 mm
09:44 PM 36.1°F2.3°C 33.4°F0.8°C 90% Calm Calm -- 29.77 in1008.1 mb 0.00 in0.0 mm 0.00 in0.0 mm 0.12 in3.0 mm
09:49 PM 36.0°F2.2°C 33.6°F0.9°C 91% Calm Calm -- 29.77 in1008.1 mb 0.00 in0.0 mm 0.00 in0.0 mm 0.12 in3.0 mm
09:54 PM 35.8°F2.1°C 33.4°F0.8°C 91% Calm Calm -- 29.77 in1008.1 mb 0.00 in0.0 mm 0.00 in0.0 mm 0.12 in3.0 mm
09:59 PM 35.6°F2.0°C 33.3°F0.7°C 91% Calm Calm -- 29.77 in1008.1 mb 0.00 in0.0 mm 0.00 in0.0 mm 0.12 in3.0 mm
10:04 PM 35.4°F1.9°C 33.1°F0.6°C 91% Calm Calm -- 29.77 in1008.1 mb 0.00 in0.0 mm 0.00 in0.0 mm 0.12 in3.0 mm
10:09 PM 35.2°F1.8°C 33.1°F0.6°C 92% Calm Calm -- 29.77 in1008.1 mb 0.00 in0.0 mm 0.00 in0.0 mm 0.12 in3.0 mm
10:13 PM 35.2°F1.8°C 33.1°F0.6°C 92% Calm Calm -- 29.77 in1008.1 mb 0.00 in0.0 mm 0.00 in0.0 mm 0.12 in3.0 mm
10:19 PM 35.1°F1.7°C 32.9°F0.5°C 92% Calm Calm -- 29.77 in1008.1 mb 0.00 in0.0 mm 0.00 in0.0 mm 0.12 in3.0 mm
10:24 PM 34.9°F1.6°C 32.7°F0.4°C 92% Calm Calm -- 29.77 in1008.1 mb 0.00 in0.0 mm 0.00 in0.0 mm 0.12 in3.0 mm
10:29 PM 34.7°F1.5°C 32.5°F0.3°C 92% Calm Calm -- 29.77 in1008.1 mb 0.00 in0.0 mm 0.00 in0.0 mm 0.12 in3.0 mm
10:34 PM 34.5°F1.4°C 32.4°F0.2°C 92% Calm Calm -- 29.76 in1007.8 mb 0.00 in0.0 mm 0.00 in0.0 mm 0.12 in3.0 mm
10:39 PM 34.3°F1.3°C 32.2°F0.1°C 92% Calm Calm -- 29.77 in1008.1 mb 0.00 in0.0 mm 0.00 in0.0 mm 0.12 in3.0 mm
10:44 PM 34.2°F1.2°C 32.0°F0.0°C 92% Calm Calm -- 29.77 in1008.1 mb 0.00 in0.0 mm 0.00 in0.0 mm 0.12 in3.0 mm
10:49 PM 34.2°F1.2°C 32.0°F0.0°C 92% Calm Calm -- 29.78 in1008.5 mb 0.00 in0.0 mm 0.00 in0.0 mm 0.12 in3.0 mm
10:54 PM 34.0°F1.1°C 32.2°F0.1°C 93% Calm Calm -- 29.78 in1008.5 mb 0.00 in0.0 mm 0.00 in0.0 mm 0.12 in3.0 mm
10:59 PM 34.0°F1.1°C 32.2°F0.1°C 93% Calm Calm -- 29.79 in1008.8 mb 0.00 in0.0 mm 0.00 in0.0 mm 0.12 in3.0 mm
11:04 PM 34.0°F1.1°C 32.2°F0.1°C 93% Calm Calm -- 29.78 in1008.5 mb 0.00 in0.0 mm 0.00 in0.0 mm 0.12 in3.0 mm
11:09 PM 34.0°F1.1°C 32.2°F0.1°C 93% Calm Calm -- 29.79 in1008.8 mb 0.00 in0.0 mm 0.00 in0.0 mm 0.12 in3.0 mm
11:14 PM 34.0°F1.1°C 32.2°F0.1°C 93% Calm Calm -- 29.80 in1009.1 mb 0.00 in0.0 mm 0.00 in0.0 mm 0.12 in3.0 mm
11:19 PM 34.0°F1.1°C 32.2°F0.1°C 93% Calm Calm -- 29.79 in1008.8 mb 0.00 in0.0 mm 0.00 in0.0 mm 0.12 in3.0 mm
11:24 PM 34.0°F1.1°C 32.2°F0.1°C 93% Calm Calm -- 29.79 in1008.8 mb 0.00 in0.0 mm 0.00 in0.0 mm 0.12 in3.0 mm
11:29 PM 34.0°F1.1°C 32.2°F0.1°C 93% Calm Calm -- 29.78 in1008.5 mb 0.00 in0.0 mm 0.00 in0.0 mm 0.12 in3.0 mm
11:34 PM 34.0°F1.1°C 32.2°F0.1°C 93% Calm Calm -- 29.78 in1008.5 mb 0.00 in0.0 mm 0.00 in0.0 mm 0.12 in3.0 mm
11:39 PM 34.0°F1.1°C 32.2°F0.1°C 93% Calm Calm -- 29.78 in1008.5 mb 0.00 in0.0 mm 0.00 in0.0 mm 0.12 in3.0 mm
11:44 PM 34.0°F1.1°C 32.2°F0.1°C 93% Calm Calm -- 29.78 in1008.5 mb 0.00 in0.0 mm 0.00 in0.0 mm 0.12 in3.0 mm
11:49 PM 34.0°F1.1°C 32.2°F0.1°C 93% Calm Calm -- 29.78 in1008.5 mb 0.00 in0.0 mm 0.00 in0.0 mm 0.12 in3.0 mm
11:54 PM 34.0°F1.1°C 32.2°F0.1°C 93% Calm Calm -- 29.78 in1008.5 mb 0.00 in0.0 mm 0.00 in0.0 mm 0.12 in3.0 mm
11:59 PM 34.0°F1.1°C 32.2°F0.1°C 93% Calm Calm -- 29.78 in1008.5 mb 0.00 in0.0 mm 0.00 in0.0 mm 0.12 in3.0 mm